Pen Argyl, Pennsylvania
Current Conditions -  °F | °C
As of 4:51 PM on Saturday 25 Oct 2014 (Local Time) from KABE Reporting Station
Few Clouds Few Clouds  
Wind Chill: 66°   Ceiling: Unl
Heat Index: 66°   Visibility: 10mi
Dew Point: 43°   Wind: 14mph
Humidity: 43%   Direction: 230°SW
Pressure: 29.69"   Gusts: 24mph
Location:  40.87°N, 75.25°W
Report Text: KABE 252051Z AUTO 23012G21KT 10SM FEW070 19/06 A2969 RMK AO2 SLP052 T01890061 56024 TSNO
Loading
Personal Weather Stations






























Interactive Weather Map
Tropical Storm Tracking
New forecast layout! Learn more

10-Day Weather Forecast

Advertisements
Track Severe Weather on mobile